Time;durP1;ratioP1;P1;durP2;ratioP2;P2;SDS_P1;SDS_P2;PMS_P1;PMS_P2;Temp;Humidity;BMP_temperature;BMP_pressure;BME280_temperature;BME280_humidity;BME280_pressure;Samples;Min_cycle;Max_cycle;Signal;HPM_P1;HPM_P2
2024/02/15 00:01:07;;;;;;;;;;;;;;;17.95;44.12;101151.84;5076768;28;1074;-54
2024/02/15 00:03:34;;;;;;;;;;;;;;;17.28;45.14;101159.91;5091771;28;1974;-55
2024/02/15 00:06:00;;;;;;;;;;;;;;;16.90;45.55;101148.16;5097058;28;1038;-57
2024/02/15 00:08:26;;;;;;;;;;;;;;;17.98;43.93;101153.19;5092068;28;1003;-56
2024/02/15 00:10:53;;;;;;;;;;;;;;;17.39;44.96;101145.09;5086903;28;999;-57
2024/02/15 00:13:19;;;;;;;;;;;;;;;16.86;45.61;101153.34;5080347;28;1102;-53
2024/02/15 00:15:45;;;;;;;;;;;;;;;16.69;45.32;101148.03;5086455;28;1036;-52
2024/02/15 00:18:11;;;;;;;;;;;;;;;17.57;44.92;101145.69;5096780;28;1038;-49
2024/02/15 00:20:37;;;;;;;;;;;;;;;17.53;44.65;101145.41;5087769;28;815;-50
2024/02/15 00:23:02;;;;;;;;;;;;;;;16.94;45.61;101146.53;5082066;28;2620;-55
2024/02/15 00:25:28;;;;;;;;;;;;;;;16.54;45.55;101132.28;5086971;28;1106;-49
2024/02/15 00:27:53;;;;;;;;;;;;;;;18.17;43.71;101139.72;5090002;28;1023;-53
2024/02/15 00:30:19;;;;;;;;;;;;;;;17.49;44.75;101135.19;5086226;28;1042;-51
2024/02/15 00:32:46;;;;;;;;;;;;;;;16.96;45.24;101136.13;5091273;28;916;-49
2024/02/15 00:35:13;;;;;;;;;;;;;;;16.63;45.28;101129.03;5086174;28;1006;-51
2024/02/15 00:37:38;;;;;;;;;;;;;;;18.31;43.03;101132.56;5082952;28;1192;-50
2024/02/15 00:40:04;;;;;;;;;;;;;;;17.20;45.36;101124.69;5078427;28;1392;-51
2024/02/15 00:42:31;;;;;;;;;;;;;;;16.86;45.31;101134.13;5079357;28;1042;-53
2024/02/15 00:44:57;;;;;;;;;;;;;;;17.97;43.85;101133.13;5086715;28;1979;-51
2024/02/15 00:47:23;;;;;;;;;;;;;;;17.42;44.67;101128.06;5096512;28;1142;-52
2024/02/15 00:49:50;;;;;;;;;;;;;;;16.86;45.41;101128.63;5086244;28;1150;-51
2024/02/15 00:52:15;;;;;;;;;;;;;;;16.55;45.03;101120.22;5079506;28;1007;-53
2024/02/15 00:54:41;;;;;;;;;;;;;;;18.22;43.18;101117.72;5076440;28;2686;-55
2024/02/15 00:57:06;;;;;;;;;;;;;;;17.27;45.01;101122.50;5092173;28;1110;-49
2024/02/15 00:59:35;;;;;;;;;;;;;;;16.76;45.51;101115.66;5086490;28;1065;-48
2024/02/15 01:02:02;;;;;;;;;;;;;;;16.67;45.06;101110.94;5089336;28;1058;-52
2024/02/15 01:04:27;;;;;;;;;;;;;;;17.57;44.37;101120.94;5084001;28;1906;-52
2024/02/15 01:06:53;;;;;;;;;;;;;;;17.88;43.85;101112.72;5075814;28;1046;-55
2024/02/15 01:09:18;;;;;;;;;;;;;;;16.95;45.68;101097.94;5085700;28;1105;-52
2024/02/15 01:11:44;;;;;;;;;;;;;;;16.74;45.12;101097.81;5096087;28;1089;-53
2024/02/15 01:14:09;;;;;;;;;;;;;;;18.03;43.69;101092.69;5085997;28;1113;-51
2024/02/15 01:16:36;;;;;;;;;;;;;;;17.56;44.31;101095.38;5077445;28;1123;-55
2024/02/15 01:19:01;;;;;;;;;;;;;;;17.06;45.41;101089.44;5086062;28;1062;-53
2024/02/15 01:21:27;;;;;;;;;;;;;;;18.73;42.10;101095.59;5083431;28;1170;-52
2024/02/15 01:23:53;;;;;;;;;;;;;;;17.38;44.80;101099.44;5088968;28;2038;-51
2024/02/15 01:26:20;;;;;;;;;;;;;;;16.95;45.14;101104.25;5097177;28;1078;-52
2024/02/15 01:28:45;;;;;;;;;;;;;;;17.50;44.55;101101.13;5088921;28;992;-51
2024/02/15 01:31:11;;;;;;;;;;;;;;;18.36;42.65;101102.28;5097618;28;1041;-53
2024/02/15 01:33:37;;;;;;;;;;;;;;;17.22;44.99;101098.59;5079560;28;1023;-55
2024/02/15 01:36:02;;;;;;;;;;;;;;;16.90;45.21;101093.22;5082298;28;1014;-54
2024/02/15 01:38:28;;;;;;;;;;;;;;;17.95;43.84;101107.81;5100102;28;1116;-54
2024/02/15 01:40:54;;;;;;;;;;;;;;;17.48;44.54;101104.16;5083640;28;1102;-55
2024/02/15 01:43:19;;;;;;;;;;;;;;;16.92;45.00;101096.56;5089132;28;1901;-53
2024/02/15 01:45:46;;;;;;;;;;;;;;;16.65;45.27;101092.00;5088912;28;1201;-53
2024/02/15 01:48:12;;;;;;;;;;;;;;;17.13;45.21;101102.94;5097603;28;1062;-52
2024/02/15 01:50:38;;;;;;;;;;;;;;;18.01;43.50;101106.72;5088722;28;1075;-52
2024/02/15 01:53:04;;;;;;;;;;;;;;;16.99;45.42;101097.13;5084483;28;2351;-54
2024/02/15 01:55:29;;;;;;;;;;;;;;;17.54;44.86;101092.06;5082068;28;1011;-53
2024/02/15 01:57:55;;;;;;;;;;;;;;;17.72;43.84;101087.13;5099776;28;998;-55
2024/02/15 02:00:20;;;;;;;;;;;;;;;16.97;44.97;101077.34;5096495;28;1010;-53
2024/02/15 02:02:47;;;;;;;;;;;;;;;17.20;45.34;101086.22;5061449;28;1221;-52
2024/02/15 02:05:12;;;;;;;;;;;;;;;18.55;42.13;101074.16;5079876;28;1914;-55
2024/02/15 02:07:38;;;;;;;;;;;;;;;17.23;44.98;101080.16;5079245;28;1151;-55
2024/02/15 02:10:04;;;;;;;;;;;;;;;17.67;44.36;101085.22;5095304;28;1133;-55
2024/02/15 02:12:30;;;;;;;;;;;;;;;17.66;43.83;101071.75;5099573;28;1078;-55
2024/02/15 02:14:55;;;;;;;;;;;;;;;17.10;44.76;101082.31;5085455;28;1026;-55
2024/02/15 02:17:21;;;;;;;;;;;;;;;16.74;45.22;101082.13;5093689;28;1018;-53
2024/02/15 02:19:48;;;;;;;;;;;;;;;17.82;44.04;101089.06;5096630;28;1130;-55
2024/02/15 02:22:13;;;;;;;;;;;;;;;17.40;44.65;101078.03;5079037;28;1007;-55
2024/02/15 02:25:00;;;;;;;;;;;;;;;16.82;45.45;101077.25;5080901;28;2502;-55
2024/02/15 02:27:29;;;;;;;;;;;;;;;17.92;43.62;101086.34;5099116;28;1269;-55
2024/02/15 02:29:55;;;;;;;;;;;;;;;17.73;44.11;101100.63;5087031;28;1097;-55
2024/02/15 02:32:21;;;;;;;;;;;;;;;17.06;45.14;101092.19;5097852;28;1102;-52
2024/02/15 02:34:47;;;;;;;;;;;;;;;16.82;45.17;101091.00;5098502;28;1133;-53
2024/02/15 02:37:13;;;;;;;;;;;;;;;16.96;45.11;101085.84;5086224;28;1077;-53
2024/02/15 02:39:39;;;;;;;;;;;;;;;17.83;43.46;101083.28;5092368;28;1043;-53
2024/02/15 02:42:04;;;;;;;;;;;;;;;16.98;45.37;101089.97;5082231;28;1353;-54
2024/02/15 02:44:30;;;;;;;;;;;;;;;16.70;45.33;101081.03;5097465;28;1973;-52
2024/02/15 02:46:56;;;;;;;;;;;;;;;16.57;45.59;101084.25;5098817;28;1194;-51
2024/02/15 02:49:22;;;;;;;;;;;;;;;18.33;42.70;101080.81;5085101;28;1129;-54
2024/02/15 02:51:48;;;;;;;;;;;;;;;18.12;43.02;101097.34;5086342;28;1069;-52
2024/02/15 02:54:14;;;;;;;;;;;;;;;17.19;44.94;101087.31;5087228;28;2501;-56
2024/02/15 02:56:40;;;;;;;;;;;;;;;17.99;43.70;101088.81;5085836;28;1157;-55
2024/02/15 02:59:07;;;;;;;;;;;;;;;17.77;43.68;101078.91;5091414;28;960;-57
2024/02/15 03:01:33;;;;;;;;;;;;;;;17.10;44.86;101082.31;5091121;28;1199;-54
2024/02/15 03:03:58;;;;;;;;;;;;;;;16.92;44.96;101088.31;5091513;28;1917;-55
2024/02/15 03:06:27;;;;;;;;;;;;;;;18.62;41.97;101077.44;5080839;28;1007;-51
2024/02/15 03:08:54;;;;;;;;;;;;;;;17.49;44.33;101083.81;5097981;28;1045;-51
2024/02/15 03:11:19;;;;;;;;;;;;;;;17.02;45.25;101084.78;5098211;28;1013;-54
2024/02/15 03:13:45;;;;;;;;;;;;;;;16.90;45.38;101077.59;5085024;28;1088;-51
2024/02/15 03:16:11;;;;;;;;;;;;;;;18.33;42.49;101069.81;5084637;28;1097;-54
2024/02/15 03:18:36;;;;;;;;;;;;;;;17.17;44.95;101073.03;5081687;28;1089;-55
2024/02/15 03:21:02;;;;;;;;;;;;;;;16.83;45.19;101071.50;5078096;28;1131;-54
2024/02/15 03:23:28;;;;;;;;;;;;;;;17.63;44.45;101078.63;5096022;28;2549;-52
2024/02/15 03:25:54;;;;;;;;;;;;;;;17.83;43.66;101077.78;5098162;28;1138;-56
2024/02/15 03:28:21;;;;;;;;;;;;;;;16.98;45.00;101078.97;5097716;28;1061;-52
2024/02/15 03:30:46;;;;;;;;;;;;;;;18.08;42.98;101074.22;5094593;28;1189;-53
2024/02/15 03:33:13;;;;;;;;;;;;;;;18.14;42.65;101086.06;5078980;28;1086;-52
2024/02/15 03:35:38;;;;;;;;;;;;;;;17.33;44.24;101082.94;5091014;28;1090;-53
2024/02/15 03:38:04;;;;;;;;;;;;;;;16.93;44.78;101092.72;5077313;28;1023;-53
2024/02/15 03:40:30;;;;;;;;;;;;;;;16.75;44.92;101103.03;5090361;28;1154;-53
2024/02/15 03:42:56;;;;;;;;;;;;;;;17.82;43.71;101113.81;5083227;28;1971;-51
2024/02/15 03:45:25;;;;;;;;;;;;;;;18.01;42.96;101114.97;5096840;28;1069;-50
2024/02/15 03:47:53;;;;;;;;;;;;;;;17.11;44.93;101110.66;5097904;28;1070;-53
2024/02/15 03:50:21;;;;;;;;;;;;;;;16.82;44.69;101107.47;5082778;28;998;-54
2024/02/15 03:52:46;;;;;;;;;;;;;;;17.70;43.98;101117.66;5077460;28;1174;-53
2024/02/15 03:55:12;;;;;;;;;;;;;;;18.24;42.51;101110.84;5095293;28;2848;-54
2024/02/15 03:57:40;;;;;;;;;;;;;;;17.23;44.64;101129.63;5076907;28;1055;-55
2024/02/15 04:00:08;;;;;;;;;;;;;;;16.90;45.09;101126.19;5077602;28;1007;-54
2024/02/15 04:02:35;;;;;;;;;;;;;;;16.84;45.16;101138.22;5097236;28;1088;-50
2024/02/15 04:05:01;;;;;;;;;;;;;;;18.55;41.87;101132.81;5082539;28;1910;-51
2024/02/15 04:07:26;;;;;;;;;;;;;;;17.26;44.39;101131.84;5076841;28;899;-55
2024/02/15 04:09:55;;;;;;;;;;;;;;;17.12;44.94;101147.19;5091182;28;1121;-52
2024/02/15 04:12:21;;;;;;;;;;;;;;;18.51;41.93;101137.25;5096663;28;1287;-54
2024/02/15 04:14:47;;;;;;;;;;;;;;;17.35;44.32;101132.97;5097155;28;1033;-55
2024/02/15 04:17:21;;;;;;;;;;;;;;;16.87;44.90;101132.19;5096820;28;1144;-52
2024/02/15 04:19:47;;;;;;;;;;;;;;;16.70;44.76;101127.69;5093328;28;1000;-54
2024/02/15 04:22:15;;;;;;;;;;;;;;;18.42;42.30;101134.19;5077008;28;1145;-58
2024/02/15 04:24:41;;;;;;;;;;;;;;;17.15;44.70;101124.66;5089944;28;2648;-56
2024/02/15 04:27:11;;;;;;;;;;;;;;;16.89;44.92;101116.31;5082516;28;1091;-52
2024/02/15 04:29:40;;;;;;;;;;;;;;;16.60;44.99;101125.72;5076477;28;1034;-53
2024/02/15 04:32:08;;;;;;;;;;;;;;;18.01;43.25;101136.16;5094519;28;859;-53
2024/02/15 04:34:34;;;;;;;;;;;;;;;17.37;44.31;101135.47;5091248;28;1195;-56
2024/02/15 04:36:59;;;;;;;;;;;;;;;16.85;45.12;101129.72;5091510;28;1014;-54
2024/02/15 04:39:27;;;;;;;;;;;;;;;18.34;42.45;101125.69;5087551;28;1134;-55
2024/02/15 04:41:55;;;;;;;;;;;;;;;17.36;44.45;101134.66;5091404;28;1065;-51
2024/02/15 04:44:20;;;;;;;;;;;;;;;16.84;45.05;101132.72;5088138;28;1901;-51
2024/02/15 04:46:46;;;;;;;;;;;;;;;16.75;44.54;101135.16;5091216;28;1045;-51
2024/02/15 04:49:13;;;;;;;;;;;;;;;16.43;44.73;101134.13;5088072;28;1225;-56
2024/02/15 04:51:40;;;;;;;;;;;;;;;18.20;42.83;101147.44;5090719;28;1094;-51
2024/02/15 04:54:07;;;;;;;;;;;;;;;17.99;43.02;101139.16;5077641;28;2498;-49
2024/02/15 04:56:33;;;;;;;;;;;;;;;17.09;44.87;101151.28;5088103;28;1018;-52
2024/02/15 04:58:58;;;;;;;;;;;;;;;16.76;44.86;101151.38;5091341;28;1070;-52
2024/02/15 05:01:24;;;;;;;;;;;;;;;18.18;42.58;101144.97;5087910;28;1070;-55
2024/02/15 05:03:49;;;;;;;;;;;;;;;17.40;44.25;101156.91;5095593;28;1947;-54
2024/02/15 05:06:16;;;;;;;;;;;;;;;16.93;44.64;101145.72;5095206;28;1080;-50
2024/02/15 05:08:42;;;;;;;;;;;;;;;18.67;41.33;101156.50;5085091;28;919;-52
2024/02/15 05:11:22;;;;;;;;;;;;;;;17.55;43.69;101161.63;5080308;28;1118;-53
2024/02/15 05:13:50;;;;;;;;;;;;;;;17.00;44.60;101158.38;5086958;28;1070;-53
2024/02/15 05:16:16;;;;;;;;;;;;;;;18.09;42.55;101180.47;5095714;28;1499;-53
2024/02/15 05:18:41;;;;;;;;;;;;;;;17.46;43.58;101169.59;5092580;28;1015;-49
2024/02/15 05:21:10;;;;;;;;;;;;;;;17.14;44.64;101180.69;5093269;28;1019;-52
2024/02/15 05:23:36;;;;;;;;;;;;;;;16.80;45.41;101187.34;5096382;28;2589;-50
2024/02/15 05:26:03;;;;;;;;;;;;;;;16.64;45.70;101189.19;5091937;28;1041;-51
2024/02/15 05:28:28;;;;;;;;;;;;;;;16.45;46.22;101193.44;5087570;28;1051;-51
2024/02/15 05:31:14;;;;;;;;;;;;;;;16.28;46.56;101202.63;5090690;28;1049;-51
2024/02/15 05:33:43;;;;;;;;;;;;;;;16.10;46.54;101201.06;5088783;28;1249;-49
2024/02/15 05:36:12;;;;;;;;;;;;;;;15.94;46.92;101202.84;5084075;28;1095;-54
2024/02/15 05:38:38;;;;;;;;;;;;;;;15.83;47.55;101209.31;5094447;28;1067;-52
2024/02/15 05:41:03;;;;;;;;;;;;;;;15.76;47.35;101203.19;5084207;28;1082;-52
2024/02/15 05:43:30;;;;;;;;;;;;;;;15.64;47.70;101215.13;5080664;28;1984;-53
2024/02/15 05:45:57;;;;;;;;;;;;;;;15.51;47.95;101210.03;5084923;28;1047;-49
2024/02/15 05:48:23;;;;;;;;;;;;;;;15.36;48.04;101210.66;5095439;28;1093;-52
2024/02/15 05:50:48;;;;;;;;;;;;;;;15.28;48.32;101217.41;5096012;28;1117;-51
2024/02/15 05:53:14;;;;;;;;;;;;;;;15.84;47.32;101221.97;5082287;28;2595;-53
2024/02/15 05:55:44;;;;;;;;;;;;;;;17.29;43.71;101213.75;5090248;28;914;-52
2024/02/15 05:58:10;;;;;;;;;;;;;;;16.58;45.20;101228.69;5095967;28;1011;-49
2024/02/15 06:00:38;;;;;;;;;;;;;;;15.96;46.53;101239.06;5091080;28;990;-49
2024/02/15 06:03:05;;;;;;;;;;;;;;;15.69;47.30;101244.50;5087402;28;1917;-50
2024/02/15 06:05:32;;;;;;;;;;;;;;;15.50;47.70;101233.03;5087324;28;2073;-51
2024/02/15 06:07:58;;;;;;;;;;;;;;;15.40;47.91;101241.94;5090017;28;1066;-52
2024/02/15 06:10:25;;;;;;;;;;;;;;;15.78;47.17;101237.50;5099061;28;1109;-56
2024/02/15 06:12:50;;;;;;;;;;;;;;;17.26;43.76;101241.78;5099266;28;1266;-56
2024/02/15 06:15:17;;;;;;;;;;;;;;;16.62;45.02;101228.97;5086019;28;1201;-53
2024/02/15 06:17:45;;;;;;;;;;;;;;;16.07;46.34;101235.38;5100015;28;1078;-49
2024/02/15 06:20:14;;;;;;;;;;;;;;;15.74;47.10;101234.44;5080309;28;1104;-52
2024/02/15 06:22:40;;;;;;;;;;;;;;;15.53;47.68;101240.75;5092398;28;2639;-55
2024/02/15 06:25:05;;;;;;;;;;;;;;;15.55;47.66;101249.53;5095720;28;2086;-53
2024/02/15 06:27:32;;;;;;;;;;;;;;;17.05;44.12;101240.84;5089026;28;1989;-55
2024/02/15 06:40:54;;;;;;;;;;;;;;;15.43;47.69;101268.03;5086433;28;1212;-53
2024/02/15 06:43:19;;;;;;;;;;;;;;;16.50;45.21;101262.09;5090919;28;3159;-52
2024/02/15 06:45:46;;;;;;;;;;;;;;;17.18;43.74;101269.75;5095116;28;1495;-54
2024/02/15 06:48:12;;;;;;;;;;;;;;;16.26;45.58;101270.66;5095908;28;1068;-54
2024/02/15 06:50:38;;;;;;;;;;;;;;;15.82;46.75;101278.97;5089753;28;1429;-54
2024/02/15 06:53:04;;;;;;;;;;;;;;;15.68;47.34;101276.59;5089246;28;1492;-52
2024/02/15 06:55:30;;;;;;;;;;;;;;;15.38;48.00;101277.81;5086872;28;1336;-53
2024/02/15 06:57:56;;;;;;;;;;;;;;;15.79;47.04;101276.69;5085595;28;1475;-52
2024/02/15 07:00:21;;;;;;;;;;;;;;;17.27;43.47;101280.00;5087553;28;1312;-52
2024/02/15 07:02:48;;;;;;;;;;;;;;;16.65;44.82;101273.22;5088640;28;1152;-56
2024/02/15 07:05:14;;;;;;;;;;;;;;;15.90;46.33;101257.38;5097598;28;1909;-57
2024/02/15 07:07:42;;;;;;;;;;;;;;;15.79;46.81;101272.06;5085448;28;2185;-53
2024/02/15 07:10:08;;;;;;;;;;;;;;;16.04;46.54;101267.97;5090334;28;995;-56
2024/02/15 07:12:34;;;;;;;;;;;;;;;17.44;43.26;101259.75;5089489;28;987;-49
2024/02/15 07:15:01;;;;;;;;;;;;;;;17.21;43.57;101250.84;5062490;28;1026;-55
2024/02/15 07:17:27;;;;;;;;;;;;;;;16.36;45.64;101275.44;5085674;28;1085;-51
2024/02/15 07:19:53;;;;;;;;;;;;;;;16.03;46.22;101272.63;5077285;28;960;-55
2024/02/15 07:22:18;;;;;;;;;;;;;;;15.84;46.88;101263.09;5078067;28;1019;-54
2024/02/15 07:24:44;;;;;;;;;;;;;;;15.73;47.09;101271.16;5082984;28;1981;-55
2024/02/15 07:27:10;;;;;;;;;;;;;;;17.18;43.96;101280.75;5087071;28;1051;-53
2024/02/15 07:29:37;;;;;;;;;;;;;;;17.31;43.20;101280.28;5082304;28;1106;-52
2024/02/15 07:32:06;;;;;;;;;;;;;;;16.43;45.55;101281.53;5097690;28;1069;-53
2024/02/15 07:34:32;;;;;;;;;;;;;;;15.99;46.42;101282.47;5095924;28;1046;-51
2024/02/15 07:36:58;;;;;;;;;;;;;;;15.82;46.99;101276.22;5081873;28;2058;-50
2024/02/15 07:39:24;;;;;;;;;;;;;;;15.62;47.26;101277.59;5085855;28;1014;-50
2024/02/15 07:41:58;;;;;;;;;;;;;;;17.06;44.12;101268.03;5083098;28;1042;-48
2024/02/15 07:44:24;;;;;;;;;;;;;;;17.14;43.64;101246.66;5086662;28;1926;-54
2024/02/15 07:46:50;;;;;;;;;;;;;;;16.34;45.57;101266.59;5084321;28;1400;-54
2024/02/15 07:49:17;;;;;;;;;;;;;;;15.90;46.45;101259.31;5079416;28;1023;-52
2024/02/15 07:51:43;;;;;;;;;;;;;;;15.74;47.02;101250.88;5089189;28;1145;-48
2024/02/15 07:54:09;;;;;;;;;;;;;;;15.46;47.64;101256.53;5097350;28;1109;-57
2024/02/15 07:56:35;;;;;;;;;;;;;;;16.12;46.37;101262.03;5081689;28;1102;-53
2024/02/15 07:59:00;;;;;;;;;;;;;;;17.42;42.97;101267.44;5082598;28;919;-50
2024/02/15 08:01:26;;;;;;;;;;;;;;;16.96;44.35;101268.00;5092161;28;1035;-55
2024/02/15 08:03:52;;;;;;;;;;;;;;;16.22;45.60;101253.88;5089379;28;1902;-55
2024/02/15 08:06:18;;;;;;;;;;;;;;;16.00;46.48;101262.16;5089208;28;1978;-51
2024/02/15 08:08:46;;;;;;;;;;;;;;;15.73;46.96;101271.16;5085340;28;1066;-54
2024/02/15 08:11:15;;;;;;;;;;;;;;;15.55;47.60;101264.06;5076979;28;1082;-53
2024/02/15 08:13:44;;;;;;;;;;;;;;;16.84;44.63;101270.06;5089999;28;1265;-52
2024/02/15 08:16:11;;;;;;;;;;;;;;;17.70;42.30;101271.69;5088806;28;1440;-49
2024/02/15 08:18:37;;;;;;;;;;;;;;;16.55;44.84;101267.63;5094342;28;1066;-53
2024/02/15 08:21:04;;;;;;;;;;;;;;;16.11;46.03;101259.53;5086948;28;860;-51
2024/02/15 08:23:29;;;;;;;;;;;;;;;15.77;46.89;101263.25;5080458;28;1889;-54
2024/02/15 08:25:55;;;;;;;;;;;;;;;15.65;47.25;101259.81;5086972;28;1181;-54
2024/02/15 08:28:20;;;;;;;;;;;;;;;15.44;47.70;101253.25;5080040;28;1122;-54
2024/02/15 08:30:46;;;;;;;;;;;;;;;16.81;44.47;101254.13;5077191;28;1105;-52
2024/02/15 08:33:12;;;;;;;;;;;;;;;17.70;42.53;101249.69;5078246;28;1023;-50
2024/02/15 08:35:39;;;;;;;;;;;;;;;16.63;44.98;101245.19;5088592;28;1222;-56
2024/02/15 08:38:05;;;;;;;;;;;;;;;16.07;46.29;101231.78;5091758;28;1042;-56
2024/02/15 08:40:31;;;;;;;;;;;;;;;15.78;46.99;101225.69;5097187;28;1113;-53
2024/02/15 08:42:56;;;;;;;;;;;;;;;15.64;47.16;101228.84;5095035;28;1158;-51
2024/02/15 08:45:23;;;;;;;;;;;;;;;15.96;46.74;101219.06;5076152;28;1917;-54
2024/02/15 08:47:50;;;;;;;;;;;;;;;17.40;43.02;101233.88;5076580;28;1083;-54
2024/02/15 08:50:23;;;;;;;;;;;;;;;16.86;44.40;101221.19;5077083;28;1090;-52
2024/02/15 08:53:09;;;;;;;;;;;;;;;16.18;46.10;101202.53;5089419;28;1249;-47
2024/02/15 08:55:47;;;;;;;;;;;;;;;15.82;46.85;101202.19;5076791;28;1174;-51
2024/02/15 08:58:13;;;;;;;;;;;;;;;15.62;47.13;101217.28;5075968;28;884;-54
2024/02/15 09:00:44;;;;;;;;;;;;;;;15.51;47.66;101194.41;5081712;28;1131;-54
2024/02/15 09:03:09;;;;;;;;;;;;;;;17.01;44.15;101202.09;5085437;28;1906;-53
2024/02/15 09:05:35;;;;;;;;;;;;;;;17.18;43.43;101181.81;5089725;28;1016;-54
2024/02/15 09:08:00;;;;;;;;;;;;;;;16.24;45.77;101174.03;5084189;28;1481;-55
2024/02/15 09:10:27;;;;;;;;;;;;;;;15.95;46.52;101176.25;5078798;28;902;-54
2024/02/15 09:12:52;;;;;;;;;;;;;;;15.72;47.08;101173.56;5085942;28;1075;-47
2024/02/15 09:15:18;;;;;;;;;;;;;;;15.57;47.12;101167.88;5082148;28;1053;-52
2024/02/15 09:17:45;;;;;;;;;;;;;;;16.35;45.75;101164.81;5085774;28;1217;-54
2024/02/15 09:20:19;;;;;;;;;;;;;;;17.57;42.71;101156.69;5089763;28;1146;-54
2024/02/15 09:22:48;;;;;;;;;;;;;;;16.64;44.84;101144.44;5083532;28;1078;-54
2024/02/15 09:25:14;;;;;;;;;;;;;;;16.03;45.98;101124.50;5083854;28;1917;-52
2024/02/15 09:27:39;;;;;;;;;;;;;;;15.85;46.47;101130.34;5089666;28;1054;-55
2024/02/15 09:30:09;;;;;;;;;;;;;;;15.59;46.94;101116.38;5075881;28;1063;-48
2024/02/15 09:32:35;;;;;;;;;;;;;;;15.52;47.47;101123.97;5088634;28;1082;-51
2024/02/15 09:35:00;;;;;;;;;;;;;;;17.09;43.59;101112.81;5077813;28;1186;-55
2024/02/15 09:37:28;;;;;;;;;;;;;;;17.52;42.53;101108.00;5079519;28;1031;-54
2024/02/15 09:39:54;;;;;;;;;;;;;;;16.45;44.84;101094.63;5087028;28;1085;-52
2024/02/15 09:42:20;;;;;;;;;;;;;;;16.02;46.19;101106.38;5086701;28;1355;-51
2024/02/15 09:44:46;;;;;;;;;;;;;;;15.76;46.50;101077.06;5089264;28;1972;-51
2024/02/15 09:47:12;;;;;;;;;;;;;;;15.62;46.97;101085.69;5078219;28;1087;-52
2024/02/15 09:49:39;;;;;;;;;;;;;;;15.70;46.95;101087.97;5095509;28;1810;-54
2024/02/15 09:54:53;;;;;;;;;;;;;;;16.82;43.85;101080.81;4979961;26;7269;-54
2024/02/15 09:57:19;;;;;;;;;;;;;;;16.20;45.36;101077.72;5043487;28;2237;-53
2024/02/15 09:59:44;;;;;;;;;;;;;;;15.94;46.31;101071.22;5047578;28;2155;-57
2024/02/15 10:02:10;;;;;;;;;;;;;;;15.68;46.96;101081.94;5047431;28;2419;-57
2024/02/15 10:04:39;;;;;;;;;;;;;;;15.53;47.06;101070.84;5084283;28;2054;-58
2024/02/15 10:07:05;;;;;;;;;;;;;;;16.72;44.29;101078.84;5055611;28;2058;-56
2024/02/15 10:09:30;;;;;;;;;;;;;;;17.63;42.32;101059.38;5027084;28;2127;-56
2024/02/15 10:11:57;;;;;;;;;;;;;;;16.52;44.52;101060.38;5039226;28;1094;-54
2024/02/15 10:14:25;;;;;;;;;;;;;;;16.09;45.86;101056.78;5039241;28;1100;-55
2024/02/15 10:16:52;;;;;;;;;;;;;;;15.76;46.55;101035.94;5031786;28;1265;-57
2024/02/15 10:19:18;;;;;;;;;;;;;;;15.57;46.86;101052.75;5039465;28;1403;-57
2024/02/15 10:21:43;;;;;;;;;;;;;;;15.57;47.04;101053.59;5030147;28;1269;-59
2024/02/15 10:24:09;;;;;;;;;;;;;;;17.13;43.22;101047.19;5037903;28;1909;-56
2024/02/15 10:26:35;;;;;;;;;;;;;;;17.37;42.55;101059.31;5025509;28;1304;-56
2024/02/15 10:29:08;;;;;;;;;;;;;;;16.29;45.22;101055.28;5029044;28;1269;-53
2024/02/15 10:31:34;;;;;;;;;;;;;;;16.00;45.89;101081.13;5032917;28;1376;-55
2024/02/15 10:34:04;;;;;;;;;;;;;;;15.92;45.91;101078.84;5031915;28;1302;-54
2024/02/15 10:36:32;;;;;;;;;;;;;;;15.62;46.78;101068.44;5031618;28;1255;-57
2024/02/15 10:39:10;;;;;;;;;;;;;;;16.43;45.23;101078.41;5036763;28;2088;-56
2024/02/15 10:41:37;;;;;;;;;;;;;;;17.64;42.30;101083.00;5029417;28;1314;-54
2024/02/15 10:44:02;;;;;;;;;;;;;;;17.08;43.26;101075.44;5038100;28;1914;-52
2024/02/15 10:46:28;;;;;;;;;;;;;;;16.37;44.91;101091.28;5037920;28;1007;-52
2024/02/15 10:48:54;;;;;;;;;;;;;;;16.26;45.29;101084.06;5031308;28;1290;-57
2024/02/15 10:51:19;;;;;;;;;;;;;;;15.92;46.32;101078.84;5030548;28;1166;-56
2024/02/15 10:53:50;;;;;;;;;;;;;;;15.86;46.59;101085.41;5031840;28;1087;-60
2024/02/15 10:56:19;;;;;;;;;;;;;;;16.47;45.43;101096.00;5030250;28;1081;-59
2024/02/15 10:58:49;;;;;;;;;;;;;;;17.65;42.24;101076.41;5032776;28;1493;-62
2024/02/15 11:01:17;;;;;;;;;;;;;;;16.88;43.86;101084.41;5038460;28;1131;-62
2024/02/15 11:03:56;;;;;;;;;;;;;;;16.26;45.47;101089.56;5070075;28;1905;-61
2024/02/15 11:06:21;;;;;;;;;;;;;;;15.99;45.93;101068.53;5027096;28;1060;-58
2024/02/15 11:08:48;;;;;;;;;;;;;;;15.74;46.60;101072.66;5064045;28;1027;-57
2024/02/15 11:11:14;;;;;;;;;;;;;;;16.26;45.55;101067.59;5024532;28;896;-56
2024/02/15 11:13:40;;;;;;;;;;;;;;;17.71;42.32;101077.22;5036919;28;1111;-55
2024/02/15 11:16:05;;;;;;;;;;;;;;;18.13;41.30;101074.25;5038680;28;1040;-55
2024/02/15 11:18:44;;;;;;;;;;;;;;;17.04;43.72;101064.19;5070332;28;1075;-55
2024/02/15 11:21:10;;;;;;;;;;;;;;;16.63;44.51;101079.63;5034598;28;905;-53
2024/02/15 11:23:35;;;;;;;;;;;;;;;16.36;45.28;101078.63;5037759;28;1985;-55
2024/02/15 11:26:01;;;;;;;;;;;;;;;17.83;42.28;101083.28;5038365;28;1138;-53
2024/02/15 11:28:29;;;;;;;;;;;;;;;17.24;43.23;101092.81;5029791;28;1404;-55
2024/02/15 11:30:58;;;;;;;;;;;;;;;16.80;44.34;101093.16;5030007;28;1051;-56
2024/02/15 11:33:23;;;;;;;;;;;;;;;16.62;45.08;101081.56;5037385;28;1075;-54
2024/02/15 11:36:07;;;;;;;;;;;;;;;16.49;44.98;101087.50;5030748;28;1115;-52
2024/02/15 11:38:36;;;;;;;;;;;;;;;16.42;45.41;101076.75;5031425;28;1064;-54
2024/02/15 11:41:02;;;;;;;;;;;;;;;16.31;45.54;101070.38;5028504;28;1012;-55
2024/02/15 11:43:45;;;;;;;;;;;;;;;16.92;44.40;101058.09;5037081;28;1910;-54
2024/02/15 11:46:14;;;;;;;;;;;;;;;17.76;42.48;101080.81;5037886;28;1112;-54
2024/02/15 11:48:39;;;;;;;;;;;;;;;16.97;44.15;101082.00;5031637;28;1013;-54
2024/02/15 11:51:06;;;;;;;;;;;;;;;16.58;45.16;101086.75;5030658;28;1131;-53
2024/02/15 11:53:35;;;;;;;;;;;;;;;16.40;45.94;101073.47;5037302;28;1699;-53
2024/02/15 11:56:01;;;;;;;;;;;;;;;16.42;45.97;101082.25;5037898;28;992;-51
2024/02/15 11:58:41;;;;;;;;;;;;;;;16.28;46.12;101076.38;5037030;28;1028;-51
2024/02/15 12:20:24;;;;;;;;;;;;;;;16.20;47.41;101091.44;5037344;28;1071;-57
2024/02/15 12:22:52;;;;;;;;;;;;;;;16.19;47.58;101089.78;5030944;28;1039;-57
2024/02/15 12:25:21;;;;;;;;;;;;;;;16.06;47.84;101095.69;5029568;28;1910;-59
2024/02/15 12:27:46;;;;;;;;;;;;;;;15.58;49.11;101101.00;5027636;28;1111;-57
2024/02/15 12:30:15;;;;;;;;;;;;;;;15.47;49.11;101115.69;5037039;28;1153;-57
2024/02/15 12:32:41;;;;;;;;;;;;;;;15.79;48.51;101112.19;5036575;28;1153;-59
2024/02/15 12:35:16;;;;;;;;;;;;;;;17.24;44.88;101109.31;5030340;28;1048;-57
2024/02/15 12:37:49;;;;;;;;;;;;;;;16.69;45.77;101104.09;5037329;28;1071;-59
2024/02/15 12:40:17;;;;;;;;;;;;;;;16.06;47.30;101104.78;5032337;28;1155;-58
2024/02/15 12:42:49;;;;;;;;;;;;;;;15.78;48.07;101100.41;5017168;28;1392;-58
2024/02/15 12:45:17;;;;;;;;;;;;;;;15.56;48.52;101098.53;5017498;28;1910;-56
2024/02/15 12:47:43;;;;;;;;;;;;;;;15.37;48.96;101080.78;5019563;28;1013;-58
2024/02/15 12:50:16;;;;;;;;;;;;;;;16.78;45.55;101090.69;5055636;28;1129;-58
2024/02/15 12:52:43;;;;;;;;;;;;;;;17.30;43.91;101090.91;5022497;28;1318;-59
2024/02/15 12:55:21;;;;;;;;;;;;;;;16.24;46.45;101086.22;5017347;28;985;-59
2024/02/15 12:57:50;;;;;;;;;;;;;;;15.86;47.58;101090.88;5033036;28;1111;-58
2024/02/15 13:00:20;;;;;;;;;;;;;;;15.68;47.76;101100.28;5035165;28;1079;-57
2024/02/15 13:02:50;;;;;;;;;;;;;;;15.49;48.11;101102.56;5036115;28;1087;-59
2024/02/15 13:05:18;;;;;;;;;;;;;;;15.35;48.74;101097.50;5022028;28;1977;-60
2024/02/15 13:07:44;;;;;;;;;;;;;;;16.56;45.81;101099.06;5026543;28;1124;-59
2024/02/15 13:10:10;;;;;;;;;;;;;;;17.50;43.30;101088.22;5029354;28;1163;-59
2024/02/15 13:12:36;;;;;;;;;;;;;;;16.42;45.89;101094.06;5034392;28;989;-59
2024/02/15 13:15:03;;;;;;;;;;;;;;;15.96;46.82;101095.63;5035435;28;1028;-60
2024/02/15 13:17:29;;;;;;;;;;;;;;;15.68;47.53;101084.69;5036061;28;1028;-60
2024/02/15 13:20:02;;;;;;;;;;;;;;;15.53;47.88;101084.53;5033222;28;1199;-59